sensor_id;sensor_type;location;lat;lon;timestamp;pressure;altitude;pressure_sealevel;temperature;humidity
75996;BME280;64681;49.738;9.004;2022-11-25T00:01:28;99392.75;;;1.88;86.88
75996;BME280;64681;49.738;9.004;2022-11-25T00:03:55;99398.91;;;1.73;86.97
75996;BME280;64681;49.738;9.004;2022-11-25T00:06:22;99390.78;;;1.65;87.59
75996;BME280;64681;49.738;9.004;2022-11-25T00:08:50;99390.00;;;1.54;87.22
75996;BME280;64681;49.738;9.004;2022-11-25T00:11:17;99394.97;;;1.66;86.56
75996;BME280;64681;49.738;9.004;2022-11-25T00:13:44;99392.84;;;1.78;85.68
75996;BME280;64681;49.738;9.004;2022-11-25T00:16:13;99401.69;;;2.03;84.86
75996;BME280;64681;49.738;9.004;2022-11-25T00:18:39;99397.03;;;2.29;83.52
75996;BME280;64681;49.738;9.004;2022-11-25T00:21:12;99395.00;;;2.16;83.79
75996;BME280;64681;49.738;9.004;2022-11-25T00:23:38;99405.81;;;2.14;84.05
75996;BME280;64681;49.738;9.004;2022-11-25T00:26:11;99398.97;;;2.53;81.65
75996;BME280;64681;49.738;9.004;2022-11-25T00:28:37;99397.53;;;2.36;81.71
75996;BME280;64681;49.738;9.004;2022-11-25T00:31:10;99394.09;;;2.36;81.36
75996;BME280;64681;49.738;9.004;2022-11-25T00:33:36;99402.38;;;2.19;81.12
75996;BME280;64681;49.738;9.004;2022-11-25T00:36:10;99391.78;;;1.79;82.69
75996;BME280;64681;49.738;9.004;2022-11-25T00:38:38;99391.28;;;1.67;84.00
75996;BME280;64681;49.738;9.004;2022-11-25T00:41:04;99389.16;;;1.74;83.00
75996;BME280;64681;49.738;9.004;2022-11-25T00:43:48;99396.34;;;1.53;84.85
75996;BME280;64681;49.738;9.004;2022-11-25T00:46:32;99388.88;;;1.81;83.47
75996;BME280;64681;49.738;9.004;2022-11-25T00:48:58;99392.16;;;2.07;82.97
75996;BME280;64681;49.738;9.004;2022-11-25T00:51:23;99388.97;;;2.15;82.97
75996;BME280;64681;49.738;9.004;2022-11-25T00:53:49;99383.16;;;2.13;83.28
75996;BME280;64681;49.738;9.004;2022-11-25T00:56:14;99383.31;;;2.32;82.96
75996;BME280;64681;49.738;9.004;2022-11-25T00:58:42;99380.16;;;2.30;83.24
75996;BME280;64681;49.738;9.004;2022-11-25T01:01:09;99381.97;;;2.40;82.61
75996;BME280;64681;49.738;9.004;2022-11-25T01:03:35;99372.78;;;2.32;83.19
75996;BME280;64681;49.738;9.004;2022-11-25T01:06:07;99383.44;;;2.57;82.25
75996;BME280;64681;49.738;9.004;2022-11-25T01:08:35;99371.50;;;2.64;81.88
75996;BME280;64681;49.738;9.004;2022-11-25T01:11:03;99381.38;;;2.83;81.53
75996;BME280;64681;49.738;9.004;2022-11-25T01:13:30;99380.16;;;2.70;81.70
75996;BME280;64681;49.738;9.004;2022-11-25T01:15:56;99385.03;;;2.52;82.49
75996;BME280;64681;49.738;9.004;2022-11-25T01:18:21;99380.56;;;2.48;83.32
75996;BME280;64681;49.738;9.004;2022-11-25T01:20:47;99390.88;;;2.44;83.13
75996;BME280;64681;49.738;9.004;2022-11-25T01:23:12;99388.19;;;2.49;82.64
75996;BME280;64681;49.738;9.004;2022-11-25T01:25:38;99387.84;;;2.61;82.24
75996;BME280;64681;49.738;9.004;2022-11-25T01:28:05;99387.47;;;2.78;81.63
75996;BME280;64681;49.738;9.004;2022-11-25T01:30:31;99379.91;;;2.32;83.09
75996;BME280;64681;49.738;9.004;2022-11-25T01:32:57;99380.00;;;2.11;84.03
75996;BME280;64681;49.738;9.004;2022-11-25T01:35:23;99385.84;;;2.08;85.16
75996;BME280;64681;49.738;9.004;2022-11-25T01:37:48;99388.81;;;2.36;84.10
75996;BME280;64681;49.738;9.004;2022-11-25T01:40:14;99390.91;;;2.39;83.89
75996;BME280;64681;49.738;9.004;2022-11-25T01:42:45;99378.25;;;2.41;83.09
75996;BME280;64681;49.738;9.004;2022-11-25T01:48:04;99396.47;;;2.32;83.53
75996;BME280;64681;49.738;9.004;2022-11-25T01:50:35;99390.16;;;2.33;83.86
75996;BME280;64681;49.738;9.004;2022-11-25T01:53:05;99385.38;;;2.41;83.26
75996;BME280;64681;49.738;9.004;2022-11-25T01:55:36;99376.47;;;2.31;83.57
75996;BME280;64681;49.738;9.004;2022-11-25T02:00:32;99386.59;;;2.53;82.72
75996;BME280;64681;49.738;9.004;2022-11-25T02:02:59;99388.94;;;2.55;82.73
75996;BME280;64681;49.738;9.004;2022-11-25T02:05:38;99398.00;;;2.44;83.42
75996;BME280;64681;49.738;9.004;2022-11-25T02:08:07;99392.03;;;2.28;84.59
75996;BME280;64681;49.738;9.004;2022-11-25T02:10:34;99395.94;;;1.90;86.39
75996;BME280;64681;49.738;9.004;2022-11-25T02:13:00;99402.44;;;2.03;86.28
75996;BME280;64681;49.738;9.004;2022-11-25T02:15:25;99400.97;;;2.32;85.33
75996;BME280;64681;49.738;9.004;2022-11-25T02:17:52;99390.97;;;2.29;85.53
75996;BME280;64681;49.738;9.004;2022-11-25T02:20:21;99388.28;;;2.39;84.60
75996;BME280;64681;49.738;9.004;2022-11-25T02:25:37;99384.00;;;2.83;83.11
75996;BME280;64681;49.738;9.004;2022-11-25T02:28:08;99389.41;;;2.97;81.70
75996;BME280;64681;49.738;9.004;2022-11-25T02:30:35;99400.78;;;2.92;81.87
75996;BME280;64681;49.738;9.004;2022-11-25T02:33:01;99397.53;;;2.71;82.48
75996;BME280;64681;49.738;9.004;2022-11-25T02:35:33;99398.09;;;2.68;82.73
75996;BME280;64681;49.738;9.004;2022-11-25T02:38:06;99392.00;;;2.73;82.05
75996;BME280;64681;49.738;9.004;2022-11-25T02:41:06;99394.91;;;2.71;81.96
75996;BME280;64681;49.738;9.004;2022-11-25T02:43:35;99392.00;;;2.73;81.64
75996;BME280;64681;49.738;9.004;2022-11-25T02:46:06;99396.28;;;2.63;82.26
75996;BME280;64681;49.738;9.004;2022-11-25T02:48:34;99388.41;;;2.58;82.53
75996;BME280;64681;49.738;9.004;2022-11-25T02:51:01;99381.03;;;2.55;82.65
75996;BME280;64681;49.738;9.004;2022-11-25T02:53:28;99379.63;;;2.33;84.25
75996;BME280;64681;49.738;9.004;2022-11-25T02:55:53;99376.34;;;2.47;83.11
75996;BME280;64681;49.738;9.004;2022-11-25T02:58:20;99377.63;;;2.55;83.02
75996;BME280;64681;49.738;9.004;2022-11-25T03:00:46;99379.84;;;2.37;84.23
75996;BME280;64681;49.738;9.004;2022-11-25T03:03:12;99381.97;;;2.35;84.18
75996;BME280;64681;49.738;9.004;2022-11-25T03:05:38;99385.25;;;2.56;83.75
75996;BME280;64681;49.738;9.004;2022-11-25T03:08:05;99384.38;;;2.71;83.53
75996;BME280;64681;49.738;9.004;2022-11-25T03:10:32;99380.56;;;2.82;82.96
75996;BME280;64681;49.738;9.004;2022-11-25T03:12:57;99375.44;;;2.96;82.60
75996;BME280;64681;49.738;9.004;2022-11-25T03:15:23;99381.91;;;3.09;82.50
75996;BME280;64681;49.738;9.004;2022-11-25T03:17:50;99372.31;;;3.19;82.13
75996;BME280;64681;49.738;9.004;2022-11-25T03:20:16;99373.56;;;3.26;81.93
75996;BME280;64681;49.738;9.004;2022-11-25T03:22:41;99383.13;;;2.88;84.02
75996;BME280;64681;49.738;9.004;2022-11-25T03:25:08;99375.91;;;3.04;83.81
75996;BME280;64681;49.738;9.004;2022-11-25T03:27:34;99377.03;;;3.22;82.71
75996;BME280;64681;49.738;9.004;2022-11-25T03:30:00;99381.53;;;2.92;83.90
75996;BME280;64681;49.738;9.004;2022-11-25T03:32:26;99377.72;;;3.03;83.46
75996;BME280;64681;49.738;9.004;2022-11-25T03:34:51;99380.09;;;3.05;83.68
75996;BME280;64681;49.738;9.004;2022-11-25T03:37:17;99377.47;;;3.29;82.62
75996;BME280;64681;49.738;9.004;2022-11-25T03:39:44;99373.47;;;3.37;82.87
75996;BME280;64681;49.738;9.004;2022-11-25T03:42:09;99365.91;;;3.49;82.35
75996;BME280;64681;49.738;9.004;2022-11-25T03:44:35;99373.72;;;3.59;82.34
75996;BME280;64681;49.738;9.004;2022-11-25T03:47:01;99370.72;;;3.66;82.38
75996;BME280;64681;49.738;9.004;2022-11-25T03:49:26;99371.59;;;3.80;81.68
75996;BME280;64681;49.738;9.004;2022-11-25T03:51:52;99361.66;;;3.72;81.49
75996;BME280;64681;49.738;9.004;2022-11-25T03:54:17;99359.97;;;3.82;81.45
75996;BME280;64681;49.738;9.004;2022-11-25T03:56:43;99358.38;;;3.61;82.42
75996;BME280;64681;49.738;9.004;2022-11-25T03:59:08;99338.69;;;3.54;82.59
75996;BME280;64681;49.738;9.004;2022-11-25T04:01:34;99367.88;;;3.62;83.05
75996;BME280;64681;49.738;9.004;2022-11-25T04:03:59;99357.91;;;3.78;82.56
75996;BME280;64681;49.738;9.004;2022-11-25T04:06:25;99357.59;;;3.61;83.15
75996;BME280;64681;49.738;9.004;2022-11-25T04:08:50;99347.84;;;3.37;84.02
75996;BME280;64681;49.738;9.004;2022-11-25T04:11:16;99344.53;;;3.26;84.73
75996;BME280;64681;49.738;9.004;2022-11-25T04:13:42;99351.16;;;3.48;84.01
75996;BME280;64681;49.738;9.004;2022-11-25T04:16:24;99348.16;;;3.30;85.08
75996;BME280;64681;49.738;9.004;2022-11-25T04:18:50;99353.97;;;3.32;85.14
75996;BME280;64681;49.738;9.004;2022-11-25T04:21:16;99345.59;;;3.69;84.02
75996;BME280;64681;49.738;9.004;2022-11-25T04:23:41;99349.69;;;3.80;83.56
75996;BME280;64681;49.738;9.004;2022-11-25T04:26:07;99352.66;;;3.06;86.08
75996;BME280;64681;49.738;9.004;2022-11-25T04:28:32;99359.63;;;2.91;87.49
75996;BME280;64681;49.738;9.004;2022-11-25T04:30:58;99355.97;;;3.16;86.34
75996;BME280;64681;49.738;9.004;2022-11-25T04:33:23;99356.53;;;3.62;85.20
75996;BME280;64681;49.738;9.004;2022-11-25T04:35:49;99356.41;;;3.91;83.10
75996;BME280;64681;49.738;9.004;2022-11-25T04:38:14;99361.25;;;4.03;82.96
75996;BME280;64681;49.738;9.004;2022-11-25T04:40:40;99360.56;;;3.78;83.68
75996;BME280;64681;49.738;9.004;2022-11-25T04:43:05;99363.47;;;3.96;83.41
75996;BME280;64681;49.738;9.004;2022-11-25T04:45:31;99356.06;;;4.17;82.43
75996;BME280;64681;49.738;9.004;2022-11-25T04:47:57;99349.19;;;4.16;81.88
75996;BME280;64681;49.738;9.004;2022-11-25T04:50:22;99360.50;;;4.03;82.52
75996;BME280;64681;49.738;9.004;2022-11-25T04:52:49;99354.34;;;4.07;82.52
75996;BME280;64681;49.738;9.004;2022-11-25T04:55:15;99359.72;;;4.02;82.91
75996;BME280;64681;49.738;9.004;2022-11-25T04:57:40;99353.47;;;3.74;83.57
75996;BME280;64681;49.738;9.004;2022-11-25T05:00:07;99360.50;;;4.03;82.85
75996;BME280;64681;49.738;9.004;2022-11-25T05:02:33;99365.56;;;3.99;82.89
75996;BME280;64681;49.738;9.004;2022-11-25T05:04:59;99377.69;;;4.19;82.91
75996;BME280;64681;49.738;9.004;2022-11-25T05:07:27;99370.28;;;4.21;82.38
75996;BME280;64681;49.738;9.004;2022-11-25T05:09:53;99362.56;;;3.87;83.29
75996;BME280;64681;49.738;9.004;2022-11-25T05:12:21;99366.13;;;4.15;82.67
75996;BME280;64681;49.738;9.004;2022-11-25T05:14:48;99373.25;;;4.34;81.82
75996;BME280;64681;49.738;9.004;2022-11-25T05:17:20;99356.97;;;4.46;80.76
75996;BME280;64681;49.738;9.004;2022-11-25T05:19:46;99362.19;;;4.32;81.27
75996;BME280;64681;49.738;9.004;2022-11-25T05:22:15;99347.19;;;4.27;81.26
75996;BME280;64681;49.738;9.004;2022-11-25T05:24:41;99336.50;;;4.18;81.82
75996;BME280;64681;49.738;9.004;2022-11-25T05:27:07;99332.81;;;4.33;81.52
75996;BME280;64681;49.738;9.004;2022-11-25T05:29:32;99345.63;;;4.59;80.40
75996;BME280;64681;49.738;9.004;2022-11-25T05:31:58;99346.31;;;4.32;80.89
75996;BME280;64681;49.738;9.004;2022-11-25T05:34:24;99337.56;;;4.17;81.83
75996;BME280;64681;49.738;9.004;2022-11-25T05:36:49;99343.88;;;4.35;81.33
75996;BME280;64681;49.738;9.004;2022-11-25T05:39:17;99344.59;;;4.41;80.93
75996;BME280;64681;49.738;9.004;2022-11-25T05:41:43;99348.72;;;4.47;80.97
75996;BME280;64681;49.738;9.004;2022-11-25T05:44:08;99351.31;;;4.33;81.04
75996;BME280;64681;49.738;9.004;2022-11-25T05:46:34;99350.78;;;4.17;81.91
75996;BME280;64681;49.738;9.004;2022-11-25T05:49:00;99362.06;;;4.23;81.53
75996;BME280;64681;49.738;9.004;2022-11-25T05:51:27;99359.59;;;4.46;80.61
75996;BME280;64681;49.738;9.004;2022-11-25T05:53:54;99352.19;;;4.48;80.23
75996;BME280;64681;49.738;9.004;2022-11-25T05:56:20;99354.63;;;4.25;80.77
75996;BME280;64681;49.738;9.004;2022-11-25T05:58:46;99360.41;;;4.27;80.05
75996;BME280;64681;49.738;9.004;2022-11-25T06:01:14;99361.00;;;4.24;80.10
75996;BME280;64681;49.738;9.004;2022-11-25T06:03:41;99360.69;;;4.25;79.62
75996;BME280;64681;49.738;9.004;2022-11-25T06:06:07;99366.81;;;4.40;79.22
75996;BME280;64681;49.738;9.004;2022-11-25T06:08:35;99377.06;;;4.08;80.17
75996;BME280;64681;49.738;9.004;2022-11-25T06:11:10;99382.75;;;3.77;81.05
75996;BME280;64681;49.738;9.004;2022-11-25T06:13:37;99383.34;;;3.50;82.42
75996;BME280;64681;49.738;9.004;2022-11-25T06:16:08;99388.44;;;3.66;82.01
75996;BME280;64681;49.738;9.004;2022-11-25T06:18:35;99392.75;;;3.56;82.31
75996;BME280;64681;49.738;9.004;2022-11-25T06:21:00;99389.34;;;3.56;82.82
75996;BME280;64681;49.738;9.004;2022-11-25T06:23:26;99387.38;;;3.67;82.48
75996;BME280;64681;49.738;9.004;2022-11-25T06:25:52;99384.88;;;3.75;82.00
75996;BME280;64681;49.738;9.004;2022-11-25T06:28:17;99381.94;;;3.77;81.66
75996;BME280;64681;49.738;9.004;2022-11-25T06:30:43;99386.16;;;3.78;82.14
75996;BME280;64681;49.738;9.004;2022-11-25T06:33:09;99392.91;;;3.65;82.93
75996;BME280;64681;49.738;9.004;2022-11-25T06:35:34;99390.16;;;3.75;82.42
75996;BME280;64681;49.738;9.004;2022-11-25T06:38:00;99404.25;;;3.90;81.85
75996;BME280;64681;49.738;9.004;2022-11-25T06:40:26;99404.38;;;3.55;82.66
75996;BME280;64681;49.738;9.004;2022-11-25T06:42:51;99403.56;;;3.06;85.43
75996;BME280;64681;49.738;9.004;2022-11-25T06:45:17;99413.44;;;3.49;84.68
75996;BME280;64681;49.738;9.004;2022-11-25T06:47:43;99414.00;;;3.70;83.65
75996;BME280;64681;49.738;9.004;2022-11-25T06:50:08;99414.50;;;3.91;83.39
75996;BME280;64681;49.738;9.004;2022-11-25T06:52:34;99403.91;;;4.16;82.17
75996;BME280;64681;49.738;9.004;2022-11-25T06:54:59;99418.31;;;4.04;83.20
75996;BME280;64681;49.738;9.004;2022-11-25T06:57:25;99417.56;;;4.42;82.13
75996;BME280;64681;49.738;9.004;2022-11-25T06:59:51;99422.47;;;4.49;82.07
75996;BME280;64681;49.738;9.004;2022-11-25T07:02:16;99428.63;;;4.63;82.51
75996;BME280;64681;49.738;9.004;2022-11-25T07:04:42;99427.53;;;4.97;80.01
75996;BME280;64681;49.738;9.004;2022-11-25T07:07:09;99425.50;;;4.94;81.13
75996;BME280;64681;49.738;9.004;2022-11-25T07:09:35;99436.09;;;4.94;81.56
75996;BME280;64681;49.738;9.004;2022-11-25T07:12:01;99436.91;;;5.09;80.38
75996;BME280;64681;49.738;9.004;2022-11-25T07:14:27;99437.38;;;5.11;81.41
75996;BME280;64681;49.738;9.004;2022-11-25T07:16:53;99445.50;;;5.14;80.46
75996;BME280;64681;49.738;9.004;2022-11-25T07:19:18;99454.38;;;5.23;80.93
75996;BME280;64681;49.738;9.004;2022-11-25T07:21:45;99458.38;;;4.88;80.48
75996;BME280;64681;49.738;9.004;2022-11-25T07:24:13;99460.28;;;4.30;83.68
75996;BME280;64681;49.738;9.004;2022-11-25T07:26:41;99448.22;;;4.43;83.46
75996;BME280;64681;49.738;9.004;2022-11-25T07:29:09;99450.84;;;4.43;84.68
75996;BME280;64681;49.738;9.004;2022-11-25T07:31:37;99460.34;;;4.82;84.87
75996;BME280;64681;49.738;9.004;2022-11-25T07:34:08;99457.41;;;5.31;83.13
75996;BME280;64681;49.738;9.004;2022-11-25T07:36:35;99466.09;;;5.50;83.32
75996;BME280;64681;49.738;9.004;2022-11-25T07:39:06;99467.97;;;5.64;82.04
75996;BME280;64681;49.738;9.004;2022-11-25T07:41:33;99474.53;;;5.94;82.53
75996;BME280;64681;49.738;9.004;2022-11-25T07:44:01;99460.91;;;6.15;82.50
75996;BME280;64681;49.738;9.004;2022-11-25T07:48:57;99461.78;;;6.24;79.71
75996;BME280;64681;49.738;9.004;2022-11-25T07:53:58;99466.91;;;6.07;80.63
75996;BME280;64681;49.738;9.004;2022-11-25T07:56:24;99467.28;;;5.86;82.41
75996;BME280;64681;49.738;9.004;2022-11-25T07:58:49;99470.69;;;5.73;82.42
75996;BME280;64681;49.738;9.004;2022-11-25T08:01:16;99462.97;;;5.62;82.27
75996;BME280;64681;49.738;9.004;2022-11-25T08:03:45;99454.22;;;6.04;82.63
75996;BME280;64681;49.738;9.004;2022-11-25T08:06:16;99452.47;;;5.99;81.75
75996;BME280;64681;49.738;9.004;2022-11-25T08:08:43;99439.03;;;6.46;81.87
75996;BME280;64681;49.738;9.004;2022-11-25T08:11:12;99454.22;;;6.54;80.03
75996;BME280;64681;49.738;9.004;2022-11-25T08:13:38;99459.44;;;6.45;79.80
75996;BME280;64681;49.738;9.004;2022-11-25T08:16:05;99451.31;;;6.64;79.51
75996;BME280;64681;49.738;9.004;2022-11-25T08:18:31;99457.44;;;6.88;79.04
75996;BME280;64681;49.738;9.004;2022-11-25T08:21:02;99455.13;;;6.95;78.54
75996;BME280;64681;49.738;9.004;2022-11-25T08:23:29;99464.53;;;7.01;79.15
75996;BME280;64681;49.738;9.004;2022-11-25T08:25:55;99455.00;;;7.00;78.76
75996;BME280;64681;49.738;9.004;2022-11-25T08:28:22;99461.09;;;7.23;80.17
75996;BME280;64681;49.738;9.004;2022-11-25T08:30:48;99462.06;;;7.68;76.62
75996;BME280;64681;49.738;9.004;2022-11-25T08:33:13;99457.81;;;7.58;77.11
75996;BME280;64681;49.738;9.004;2022-11-25T08:35:39;99456.13;;;7.31;76.78
75996;BME280;64681;49.738;9.004;2022-11-25T08:38:07;99459.81;;;7.52;78.38
75996;BME280;64681;49.738;9.004;2022-11-25T08:40:34;99464.97;;;7.49;77.46
75996;BME280;64681;49.738;9.004;2022-11-25T08:43:00;99464.78;;;7.85;77.56
75996;BME280;64681;49.738;9.004;2022-11-25T08:45:27;99459.88;;;7.70;76.11
75996;BME280;64681;49.738;9.004;2022-11-25T08:47:52;99459.81;;;7.92;77.78
75996;BME280;64681;49.738;9.004;2022-11-25T08:50:18;99455.75;;;8.13;77.98
75996;BME280;64681;49.738;9.004;2022-11-25T08:52:44;99463.13;;;8.24;78.01
75996;BME280;64681;49.738;9.004;2022-11-25T08:55:10;99469.13;;;8.39;77.40
75996;BME280;64681;49.738;9.004;2022-11-25T08:57:35;99460.88;;;7.91;78.41
75996;BME280;64681;49.738;9.004;2022-11-25T09:00:03;99447.91;;;7.99;79.50
75996;BME280;64681;49.738;9.004;2022-11-25T09:02:29;99457.03;;;8.15;80.47
75996;BME280;64681;49.738;9.004;2022-11-25T09:04:54;99460.66;;;8.46;77.05
75996;BME280;64681;49.738;9.004;2022-11-25T09:07:20;99466.63;;;8.51;77.93
75996;BME280;64681;49.738;9.004;2022-11-25T09:09:46;99466.78;;;8.73;75.88
75996;BME280;64681;49.738;9.004;2022-11-25T09:12:11;99476.03;;;8.75;75.86
75996;BME280;64681;49.738;9.004;2022-11-25T09:14:37;99469.75;;;8.71;75.87
75996;BME280;64681;49.738;9.004;2022-11-25T09:17:09;99475.84;;;8.63;75.74
75996;BME280;64681;49.738;9.004;2022-11-25T09:19:34;99473.66;;;8.65;75.06
75996;BME280;64681;49.738;9.004;2022-11-25T09:22:00;99470.38;;;8.59;77.33
75996;BME280;64681;49.738;9.004;2022-11-25T09:24:26;99462.09;;;8.69;76.79
75996;BME280;64681;49.738;9.004;2022-11-25T09:26:52;99471.81;;;8.65;77.21
75996;BME280;64681;49.738;9.004;2022-11-25T09:29:19;99475.41;;;8.69;76.40
75996;BME280;64681;49.738;9.004;2022-11-25T09:31:44;99473.38;;;8.75;76.86
75996;BME280;64681;49.738;9.004;2022-11-25T09:34:10;99481.03;;;8.77;77.21
75996;BME280;64681;49.738;9.004;2022-11-25T09:36:36;99474.47;;;8.74;77.92
75996;BME280;64681;49.738;9.004;2022-11-25T09:39:02;99486.97;;;8.65;75.96
75996;BME280;64681;49.738;9.004;2022-11-25T09:41:55;99497.78;;;8.95;75.65
75996;BME280;64681;49.738;9.004;2022-11-25T09:51:01;99488.84;;;8.55;79.47
75996;BME280;64681;49.738;9.004;2022-11-25T09:53:43;99511.25;;;8.63;79.09
75996;BME280;64681;49.738;9.004;2022-11-25T09:56:33;99515.75;;;8.45;77.11
75996;BME280;64681;49.738;9.004;2022-11-25T09:59:18;99510.31;;;8.85;77.99
75996;BME280;64681;49.738;9.004;2022-11-25T10:02:00;99520.34;;;9.06;76.28
75996;BME280;64681;49.738;9.004;2022-11-25T10:04:42;99515.00;;;9.15;78.44
75996;BME280;64681;49.738;9.004;2022-11-25T10:07:21;99516.69;;;9.19;78.03
75996;BME280;64681;49.738;9.004;2022-11-25T10:09:53;99531.25;;;9.40;78.28
75996;BME280;64681;49.738;9.004;2022-11-25T10:12:35;99526.53;;;9.37;76.63
75996;BME280;64681;49.738;9.004;2022-11-25T10:15:07;99536.25;;;9.50;76.87
75996;BME280;64681;49.738;9.004;2022-11-25T10:17:47;99533.88;;;9.48;77.87
75996;BME280;64681;49.738;9.004;2022-11-25T10:22:45;99543.13;;;9.51;76.07
75996;BME280;64681;49.738;9.004;2022-11-25T10:25:14;99542.81;;;9.53;77.45
75996;BME280;64681;49.738;9.004;2022-11-25T10:27:51;99548.38;;;9.77;74.85
75996;BME280;64681;49.738;9.004;2022-11-25T10:30:26;99547.47;;;9.73;75.71
75996;BME280;64681;49.738;9.004;2022-11-25T10:35:37;99561.53;;;9.26;76.64
75996;BME280;64681;49.738;9.004;2022-11-25T10:38:11;99565.91;;;9.40;77.58
75996;BME280;64681;49.738;9.004;2022-11-25T10:40:38;99557.72;;;9.45;75.33
75996;BME280;64681;49.738;9.004;2022-11-25T10:43:13;99552.69;;;9.52;77.99
75996;BME280;64681;49.738;9.004;2022-11-25T10:46:07;99553.75;;;9.69;77.54
75996;BME280;64681;49.738;9.004;2022-11-25T10:48:55;99557.75;;;9.92;77.66
75996;BME280;64681;49.738;9.004;2022-11-25T10:54:25;99558.38;;;10.28;75.03
75996;BME280;64681;49.738;9.004;2022-11-25T10:56:59;99567.09;;;10.46;75.01
75996;BME280;64681;49.738;9.004;2022-11-25T10:59:34;99561.41;;;10.48;76.95
75996;BME280;64681;49.738;9.004;2022-11-25T11:02:27;99560.84;;;10.63;77.89
75996;BME280;64681;49.738;9.004;2022-11-25T11:05:00;99565.28;;;10.59;75.09
75996;BME280;64681;49.738;9.004;2022-11-25T11:07:30;99559.41;;;10.87;75.45
75996;BME280;64681;49.738;9.004;2022-11-25T11:10:24;99551.19;;;11.13;76.00
75996;BME280;64681;49.738;9.004;2022-11-25T11:13:02;99538.81;;;11.08;71.06
75996;BME280;64681;49.738;9.004;2022-11-25T11:21:02;99553.13;;;10.40;73.24
75996;BME280;64681;49.738;9.004;2022-11-25T11:23:29;99553.75;;;10.46;71.63
75996;BME280;64681;49.738;9.004;2022-11-25T11:28:26;99561.03;;;10.58;73.24
75996;BME280;64681;49.738;9.004;2022-11-25T11:39:24;99569.72;;;11.18;68.97
75996;BME280;64681;49.738;9.004;2022-11-25T11:45:10;99577.97;;;10.62;70.55
75996;BME280;64681;49.738;9.004;2022-11-25T11:53:30;99574.25;;;11.18;69.28
75996;BME280;64681;49.738;9.004;2022-11-25T12:02:05;99586.50;;;11.19;68.96
75996;BME280;64681;49.738;9.004;2022-11-25T12:10:27;99589.84;;;11.16;69.67
75996;BME280;64681;49.738;9.004;2022-11-25T12:15:59;99591.44;;;10.66;70.19
75996;BME280;64681;49.738;9.004;2022-11-25T12:21:34;99600.41;;;10.91;69.80
75996;BME280;64681;49.738;9.004;2022-11-25T12:29:37;99604.63;;;11.34;68.64
75996;BME280;64681;49.738;9.004;2022-11-25T12:37:38;99600.22;;;11.97;66.96
75996;BME280;64681;49.738;9.004;2022-11-25T12:40:17;99606.16;;;12.02;66.50
75996;BME280;64681;49.738;9.004;2022-11-25T12:42:47;99621.41;;;11.56;67.58
75996;BME280;64681;49.738;9.004;2022-11-25T12:45:24;99615.94;;;11.52;67.95
75996;BME280;64681;49.738;9.004;2022-11-25T12:47:51;99623.44;;;11.59;67.67
75996;BME280;64681;49.738;9.004;2022-11-25T12:50:50;99631.88;;;11.61;67.44
75996;BME280;64681;49.738;9.004;2022-11-25T12:53:43;99633.38;;;11.71;67.42
75996;BME280;64681;49.738;9.004;2022-11-25T12:56:22;99637.53;;;11.81;67.42
75996;BME280;64681;49.738;9.004;2022-11-25T13:01:50;99640.94;;;12.02;66.19
75996;BME280;64681;49.738;9.004;2022-11-25T13:04:43;99646.81;;;11.96;66.73
75996;BME280;64681;49.738;9.004;2022-11-25T13:15:36;99663.94;;;11.49;68.56
75996;BME280;64681;49.738;9.004;2022-11-25T13:18:15;99663.59;;;11.71;67.37
75996;BME280;64681;49.738;9.004;2022-11-25T13:20:52;99672.94;;;11.44;67.97
75996;BME280;64681;49.738;9.004;2022-11-25T13:25:46;99682.00;;;11.09;69.45
75996;BME280;64681;49.738;9.004;2022-11-25T13:36:45;99690.28;;;10.96;70.92
75996;BME280;64681;49.738;9.004;2022-11-25T13:39:17;99687.75;;;11.20;70.08
75996;BME280;64681;49.738;9.004;2022-11-25T13:41:47;99693.66;;;11.05;70.46
75996;BME280;64681;49.738;9.004;2022-11-25T13:44:34;99694.41;;;11.35;69.98
75996;BME280;64681;49.738;9.004;2022-11-25T13:47:31;99693.94;;;11.12;69.30
75996;BME280;64681;49.738;9.004;2022-11-25T13:49:57;99700.72;;;10.80;70.53
75996;BME280;64681;49.738;9.004;2022-11-25T13:54:53;99709.53;;;11.52;68.89
75996;BME280;64681;49.738;9.004;2022-11-25T13:57:26;99710.72;;;11.64;66.51
75996;BME280;64681;49.738;9.004;2022-11-25T13:59:55;99722.56;;;11.75;67.03
75996;BME280;64681;49.738;9.004;2022-11-25T14:04:53;99724.47;;;11.75;67.68
75996;BME280;64681;49.738;9.004;2022-11-25T14:10:36;99746.13;;;11.61;67.82
75996;BME280;64681;49.738;9.004;2022-11-25T14:21:39;99742.38;;;11.74;67.35
75996;BME280;64681;49.738;9.004;2022-11-25T14:27:25;99759.88;;;12.14;66.60
75996;BME280;64681;49.738;9.004;2022-11-25T14:29:58;99751.97;;;11.54;69.14
75996;BME280;64681;49.738;9.004;2022-11-25T14:32:27;99750.41;;;11.74;66.72
75996;BME280;64681;49.738;9.004;2022-11-25T14:37:51;99764.09;;;11.09;69.81
75996;BME280;64681;49.738;9.004;2022-11-25T14:40:27;99770.41;;;11.55;68.31
75996;BME280;64681;49.738;9.004;2022-11-25T14:43:02;99767.41;;;11.57;67.76
75996;BME280;64681;49.738;9.004;2022-11-25T14:45:32;99775.66;;;11.43;67.79
75996;BME280;64681;49.738;9.004;2022-11-25T14:48:18;99778.81;;;11.45;68.20
75996;BME280;64681;49.738;9.004;2022-11-25T14:51:26;99782.56;;;11.44;68.20
75996;BME280;64681;49.738;9.004;2022-11-25T14:53:47;99786.41;;;11.34;68.98
75996;BME280;64681;49.738;9.004;2022-11-25T14:56:20;99786.28;;;11.31;69.02
75996;BME280;64681;49.738;9.004;2022-11-25T14:58:50;99789.09;;;11.34;68.76
75996;BME280;64681;49.738;9.004;2022-11-25T15:01:20;99797.63;;;11.28;69.25
75996;BME280;64681;49.738;9.004;2022-11-25T15:03:51;99794.84;;;11.15;68.82
75996;BME280;64681;49.738;9.004;2022-11-25T15:06:31;99798.66;;;10.67;70.52
75996;BME280;64681;49.738;9.004;2022-11-25T15:08:58;99793.78;;;10.69;70.90
75996;BME280;64681;49.738;9.004;2022-11-25T15:11:28;99798.25;;;10.47;70.89
75996;BME280;64681;49.738;9.004;2022-11-25T15:14:04;99800.94;;;10.38;70.78
75996;BME280;64681;49.738;9.004;2022-11-25T15:16:37;99801.06;;;10.33;72.14
75996;BME280;64681;49.738;9.004;2022-11-25T15:19:11;99810.97;;;9.97;73.63
75996;BME280;64681;49.738;9.004;2022-11-25T15:21:40;99812.41;;;10.04;74.14
75996;BME280;64681;49.738;9.004;2022-11-25T15:24:28;99812.41;;;10.04;72.85
75996;BME280;64681;49.738;9.004;2022-11-25T15:26:57;99821.81;;;10.19;72.17